sensor_id;sensor_type;location;lat;lon;timestamp;P1;durP1;ratioP1;P2;durP2;ratioP2
30998;SDS011;20549;50.042;8.968;2023-05-28T00:00:59;6.00;;;3.90;;
30998;SDS011;20549;50.042;8.968;2023-05-28T00:03:25;5.20;;;4.07;;
30998;SDS011;20549;50.042;8.968;2023-05-28T00:05:52;5.73;;;3.50;;
30998;SDS011;20549;50.042;8.968;2023-05-28T00:08:18;8.27;;;4.27;;
30998;SDS011;20549;50.042;8.968;2023-05-28T00:10:45;4.73;;;3.40;;
30998;SDS011;20549;50.042;8.968;2023-05-28T00:13:12;5.03;;;3.73;;
30998;SDS011;20549;50.042;8.968;2023-05-28T00:15:38;6.17;;;3.60;;
30998;SDS011;20549;50.042;8.968;2023-05-28T00:18:05;5.57;;;3.60;;
30998;SDS011;20549;50.042;8.968;2023-05-28T00:20:31;4.73;;;3.27;;
30998;SDS011;20549;50.042;8.968;2023-05-28T00:22:58;5.90;;;3.33;;
30998;SDS011;20549;50.042;8.968;2023-05-28T00:25:25;3.73;;;3.00;;
30998;SDS011;20549;50.042;8.968;2023-05-28T00:27:51;6.33;;;3.50;;
30998;SDS011;20549;50.042;8.968;2023-05-28T00:30:18;6.13;;;3.30;;
30998;SDS011;20549;50.042;8.968;2023-05-28T00:32:44;6.30;;;3.70;;
30998;SDS011;20549;50.042;8.968;2023-05-28T00:35:11;5.97;;;3.67;;
30998;SDS011;20549;50.042;8.968;2023-05-28T00:37:38;5.90;;;3.80;;
30998;SDS011;20549;50.042;8.968;2023-05-28T00:40:04;5.27;;;3.63;;
30998;SDS011;20549;50.042;8.968;2023-05-28T00:42:31;6.23;;;4.47;;
30998;SDS011;20549;50.042;8.968;2023-05-28T00:44:57;5.33;;;4.10;;
30998;SDS011;20549;50.042;8.968;2023-05-28T00:47:24;6.90;;;3.60;;
30998;SDS011;20549;50.042;8.968;2023-05-28T00:49:51;7.23;;;3.80;;
30998;SDS011;20549;50.042;8.968;2023-05-28T00:52:17;4.20;;;3.57;;
30998;SDS011;20549;50.042;8.968;2023-05-28T00:54:44;6.07;;;3.97;;
30998;SDS011;20549;50.042;8.968;2023-05-28T00:57:10;5.23;;;3.93;;
30998;SDS011;20549;50.042;8.968;2023-05-28T00:59:37;6.63;;;4.33;;
30998;SDS011;20549;50.042;8.968;2023-05-28T01:02:03;7.23;;;3.87;;
30998;SDS011;20549;50.042;8.968;2023-05-28T01:04:30;4.70;;;3.83;;
30998;SDS011;20549;50.042;8.968;2023-05-28T01:07:00;4.93;;;4.07;;
30998;SDS011;20549;50.042;8.968;2023-05-28T01:09:26;4.87;;;3.73;;
30998;SDS011;20549;50.042;8.968;2023-05-28T01:11:53;6.57;;;3.70;;
30998;SDS011;20549;50.042;8.968;2023-05-28T01:14:19;6.10;;;3.80;;
30998;SDS011;20549;50.042;8.968;2023-05-28T01:16:46;5.27;;;4.30;;
30998;SDS011;20549;50.042;8.968;2023-05-28T01:19:13;4.70;;;3.60;;
30998;SDS011;20549;50.042;8.968;2023-05-28T01:21:40;5.27;;;3.67;;
30998;SDS011;20549;50.042;8.968;2023-05-28T01:24:06;4.87;;;3.93;;
30998;SDS011;20549;50.042;8.968;2023-05-28T01:26:32;8.53;;;4.10;;
30998;SDS011;20549;50.042;8.968;2023-05-28T01:28:59;6.73;;;3.50;;
30998;SDS011;20549;50.042;8.968;2023-05-28T01:31:25;6.23;;;4.00;;
30998;SDS011;20549;50.042;8.968;2023-05-28T01:33:52;5.77;;;3.90;;
30998;SDS011;20549;50.042;8.968;2023-05-28T01:36:20;6.23;;;3.83;;
30998;SDS011;20549;50.042;8.968;2023-05-28T01:38:46;6.17;;;3.93;;
30998;SDS011;20549;50.042;8.968;2023-05-28T01:41:12;6.87;;;3.90;;
30998;SDS011;20549;50.042;8.968;2023-05-28T01:43:39;6.03;;;4.30;;
30998;SDS011;20549;50.042;8.968;2023-05-28T01:46:05;4.87;;;3.33;;
30998;SDS011;20549;50.042;8.968;2023-05-28T01:48:32;6.60;;;3.60;;
30998;SDS011;20549;50.042;8.968;2023-05-28T01:50:58;8.20;;;4.40;;
30998;SDS011;20549;50.042;8.968;2023-05-28T01:53:25;5.27;;;4.07;;
30998;SDS011;20549;50.042;8.968;2023-05-28T01:55:51;4.60;;;3.50;;
30998;SDS011;20549;50.042;8.968;2023-05-28T01:58:18;5.07;;;3.80;;
30998;SDS011;20549;50.042;8.968;2023-05-28T02:00:47;9.07;;;4.40;;
30998;SDS011;20549;50.042;8.968;2023-05-28T02:03:14;4.40;;;3.90;;
30998;SDS011;20549;50.042;8.968;2023-05-28T02:05:40;6.57;;;4.07;;
30998;SDS011;20549;50.042;8.968;2023-05-28T02:08:07;5.80;;;3.63;;
30998;SDS011;20549;50.042;8.968;2023-05-28T02:10:34;4.63;;;3.73;;
30998;SDS011;20549;50.042;8.968;2023-05-28T02:13:00;8.13;;;4.30;;
30998;SDS011;20549;50.042;8.968;2023-05-28T02:15:27;4.73;;;3.87;;
30998;SDS011;20549;50.042;8.968;2023-05-28T02:17:54;4.57;;;3.67;;
30998;SDS011;20549;50.042;8.968;2023-05-28T02:20:20;5.37;;;3.90;;
30998;SDS011;20549;50.042;8.968;2023-05-28T02:22:47;5.83;;;4.00;;
30998;SDS011;20549;50.042;8.968;2023-05-28T02:25:13;3.90;;;3.50;;
30998;SDS011;20549;50.042;8.968;2023-05-28T02:27:40;6.90;;;4.30;;
30998;SDS011;20549;50.042;8.968;2023-05-28T02:30:06;6.13;;;3.93;;
30998;SDS011;20549;50.042;8.968;2023-05-28T02:32:33;6.90;;;4.30;;
30998;SDS011;20549;50.042;8.968;2023-05-28T02:35:00;5.97;;;3.73;;
30998;SDS011;20549;50.042;8.968;2023-05-28T02:37:26;4.53;;;3.50;;
30998;SDS011;20549;50.042;8.968;2023-05-28T02:39:53;7.17;;;4.07;;
30998;SDS011;20549;50.042;8.968;2023-05-28T02:42:19;6.77;;;3.20;;
30998;SDS011;20549;50.042;8.968;2023-05-28T02:44:46;4.37;;;3.67;;
30998;SDS011;20549;50.042;8.968;2023-05-28T02:47:13;5.13;;;3.77;;
30998;SDS011;20549;50.042;8.968;2023-05-28T02:49:39;4.83;;;3.50;;
30998;SDS011;20549;50.042;8.968;2023-05-28T02:52:06;4.47;;;3.87;;
30998;SDS011;20549;50.042;8.968;2023-05-28T02:54:32;5.30;;;3.73;;
30998;SDS011;20549;50.042;8.968;2023-05-28T02:56:59;6.90;;;4.43;;
30998;SDS011;20549;50.042;8.968;2023-05-28T02:59:26;6.13;;;4.00;;
30998;SDS011;20549;50.042;8.968;2023-05-28T03:01:52;5.83;;;3.30;;
30998;SDS011;20549;50.042;8.968;2023-05-28T03:04:19;6.47;;;4.20;;
30998;SDS011;20549;50.042;8.968;2023-05-28T03:06:45;6.27;;;3.80;;
30998;SDS011;20549;50.042;8.968;2023-05-28T03:09:12;7.83;;;3.73;;
30998;SDS011;20549;50.042;8.968;2023-05-28T03:11:38;4.80;;;3.57;;
30998;SDS011;20549;50.042;8.968;2023-05-28T03:14:05;5.50;;;5.00;;
30998;SDS011;20549;50.042;8.968;2023-05-28T03:16:32;7.20;;;4.60;;
30998;SDS011;20549;50.042;8.968;2023-05-28T03:18:58;4.60;;;4.17;;
30998;SDS011;20549;50.042;8.968;2023-05-28T03:21:25;5.40;;;3.87;;
30998;SDS011;20549;50.042;8.968;2023-05-28T03:23:51;6.17;;;4.13;;
30998;SDS011;20549;50.042;8.968;2023-05-28T03:26:18;7.27;;;4.13;;
30998;SDS011;20549;50.042;8.968;2023-05-28T03:28:45;6.50;;;3.70;;
30998;SDS011;20549;50.042;8.968;2023-05-28T03:31:11;8.47;;;4.50;;
30998;SDS011;20549;50.042;8.968;2023-05-28T03:33:38;5.67;;;3.93;;
30998;SDS011;20549;50.042;8.968;2023-05-28T03:36:04;5.23;;;4.03;;
30998;SDS011;20549;50.042;8.968;2023-05-28T03:38:31;7.33;;;4.00;;
30998;SDS011;20549;50.042;8.968;2023-05-28T03:40:58;4.07;;;3.60;;
30998;SDS011;20549;50.042;8.968;2023-05-28T03:43:24;6.57;;;4.27;;
30998;SDS011;20549;50.042;8.968;2023-05-28T03:45:51;6.47;;;3.60;;
30998;SDS011;20549;50.042;8.968;2023-05-28T03:48:17;6.57;;;4.10;;
30998;SDS011;20549;50.042;8.968;2023-05-28T03:50:44;4.60;;;4.07;;
30998;SDS011;20549;50.042;8.968;2023-05-28T03:53:10;6.37;;;4.57;;
30998;SDS011;20549;50.042;8.968;2023-05-28T03:55:37;6.23;;;3.33;;
30998;SDS011;20549;50.042;8.968;2023-05-28T03:58:04;5.53;;;4.00;;
30998;SDS011;20549;50.042;8.968;2023-05-28T04:00:30;5.07;;;3.73;;
30998;SDS011;20549;50.042;8.968;2023-05-28T04:02:57;5.50;;;3.63;;
30998;SDS011;20549;50.042;8.968;2023-05-28T04:05:23;5.60;;;3.50;;
30998;SDS011;20549;50.042;8.968;2023-05-28T04:07:50;4.20;;;3.60;;
30998;SDS011;20549;50.042;8.968;2023-05-28T04:10:17;4.27;;;3.87;;
30998;SDS011;20549;50.042;8.968;2023-05-28T04:12:43;4.23;;;3.20;;
30998;SDS011;20549;50.042;8.968;2023-05-28T04:15:10;4.67;;;4.07;;
30998;SDS011;20549;50.042;8.968;2023-05-28T04:17:36;5.03;;;3.17;;
30998;SDS011;20549;50.042;8.968;2023-05-28T04:20:03;6.80;;;4.50;;
30998;SDS011;20549;50.042;8.968;2023-05-28T04:22:32;4.93;;;3.73;;
30998;SDS011;20549;50.042;8.968;2023-05-28T04:24:59;5.83;;;4.07;;
30998;SDS011;20549;50.042;8.968;2023-05-28T04:27:25;5.27;;;4.00;;
30998;SDS011;20549;50.042;8.968;2023-05-28T04:29:52;6.70;;;3.70;;
30998;SDS011;20549;50.042;8.968;2023-05-28T04:32:19;5.83;;;3.77;;
30998;SDS011;20549;50.042;8.968;2023-05-28T04:34:45;6.47;;;4.23;;
30998;SDS011;20549;50.042;8.968;2023-05-28T04:37:12;4.77;;;3.43;;
30998;SDS011;20549;50.042;8.968;2023-05-28T04:39:38;5.80;;;4.40;;
30998;SDS011;20549;50.042;8.968;2023-05-28T04:42:05;5.70;;;3.73;;
30998;SDS011;20549;50.042;8.968;2023-05-28T04:44:31;4.23;;;3.77;;
30998;SDS011;20549;50.042;8.968;2023-05-28T04:46:58;5.40;;;4.10;;
30998;SDS011;20549;50.042;8.968;2023-05-28T04:49:25;5.00;;;4.50;;
30998;SDS011;20549;50.042;8.968;2023-05-28T04:51:52;4.83;;;4.00;;
30998;SDS011;20549;50.042;8.968;2023-05-28T04:54:18;6.13;;;4.07;;
30998;SDS011;20549;50.042;8.968;2023-05-28T04:56:44;4.60;;;3.53;;
30998;SDS011;20549;50.042;8.968;2023-05-28T04:59:11;3.80;;;3.40;;
30998;SDS011;20549;50.042;8.968;2023-05-28T05:01:38;5.70;;;3.72;;
30998;SDS011;20549;50.042;8.968;2023-05-28T05:04:07;4.25;;;3.15;;
30998;SDS011;20549;50.042;8.968;2023-05-28T05:06:33;4.72;;;3.25;;
30998;SDS011;20549;50.042;8.968;2023-05-28T05:09:00;4.85;;;3.58;;
30998;SDS011;20549;50.042;8.968;2023-05-28T05:11:26;5.10;;;3.37;;
30998;SDS011;20549;50.042;8.968;2023-05-28T05:13:53;3.72;;;2.75;;
30998;SDS011;20549;50.042;8.968;2023-05-28T05:16:20;4.40;;;2.87;;
30998;SDS011;20549;50.042;8.968;2023-05-28T05:18:46;4.15;;;2.90;;
30998;SDS011;20549;50.042;8.968;2023-05-28T05:21:13;3.40;;;3.00;;
30998;SDS011;20549;50.042;8.968;2023-05-28T05:23:39;5.53;;;3.00;;
30998;SDS011;20549;50.042;8.968;2023-05-28T05:26:09;3.42;;;2.90;;
30998;SDS011;20549;50.042;8.968;2023-05-28T05:28:35;3.12;;;2.27;;
30998;SDS011;20549;50.042;8.968;2023-05-28T05:31:02;3.60;;;2.37;;
30998;SDS011;20549;50.042;8.968;2023-05-28T05:33:29;2.87;;;2.52;;
30998;SDS011;20549;50.042;8.968;2023-05-28T05:35:55;3.72;;;2.70;;
30998;SDS011;20549;50.042;8.968;2023-05-28T05:38:22;3.12;;;2.40;;
30998;SDS011;20549;50.042;8.968;2023-05-28T05:40:48;3.33;;;2.37;;
30998;SDS011;20549;50.042;8.968;2023-05-28T05:43:15;3.35;;;2.58;;
30998;SDS011;20549;50.042;8.968;2023-05-28T05:45:42;3.35;;;2.30;;
30998;SDS011;20549;50.042;8.968;2023-05-28T05:48:08;3.12;;;2.50;;
30998;SDS011;20549;50.042;8.968;2023-05-28T05:50:46;3.10;;;2.83;;
30998;SDS011;20549;50.042;8.968;2023-05-28T05:53:01;3.35;;;2.92;;
30998;SDS011;20549;50.042;8.968;2023-05-28T05:55:28;4.30;;;2.67;;
30998;SDS011;20549;50.042;8.968;2023-05-28T05:57:54;3.17;;;2.75;;
30998;SDS011;20549;50.042;8.968;2023-05-28T06:00:21;3.80;;;2.80;;
30998;SDS011;20549;50.042;8.968;2023-05-28T06:02:48;3.55;;;2.55;;
30998;SDS011;20549;50.042;8.968;2023-05-28T06:05:14;3.10;;;2.45;;
30998;SDS011;20549;50.042;8.968;2023-05-28T06:07:41;2.60;;;2.37;;
30998;SDS011;20549;50.042;8.968;2023-05-28T06:10:07;2.92;;;2.52;;
30998;SDS011;20549;50.042;8.968;2023-05-28T06:12:34;3.02;;;2.25;;
30998;SDS011;20549;50.042;8.968;2023-05-28T06:15:01;4.05;;;3.00;;
30998;SDS011;20549;50.042;8.968;2023-05-28T06:17:27;3.45;;;2.60;;
30998;SDS011;20549;50.042;8.968;2023-05-28T06:19:54;4.12;;;2.70;;
30998;SDS011;20549;50.042;8.968;2023-05-28T06:22:20;3.83;;;3.33;;
30998;SDS011;20549;50.042;8.968;2023-05-28T06:24:47;2.80;;;2.47;;
30998;SDS011;20549;50.042;8.968;2023-05-28T06:27:14;3.47;;;2.50;;
30998;SDS011;20549;50.042;8.968;2023-05-28T06:29:40;3.75;;;2.77;;
30998;SDS011;20549;50.042;8.968;2023-05-28T06:32:07;3.05;;;2.47;;
30998;SDS011;20549;50.042;8.968;2023-05-28T06:34:33;4.53;;;2.87;;
30998;SDS011;20549;50.042;8.968;2023-05-28T06:37:00;3.70;;;2.40;;
30998;SDS011;20549;50.042;8.968;2023-05-28T06:39:27;5.08;;;2.62;;
30998;SDS011;20549;50.042;8.968;2023-05-28T06:41:53;2.83;;;2.45;;
30998;SDS011;20549;50.042;8.968;2023-05-28T06:44:20;2.50;;;2.30;;
30998;SDS011;20549;50.042;8.968;2023-05-28T06:46:46;2.58;;;2.30;;
30998;SDS011;20549;50.042;8.968;2023-05-28T06:49:13;3.65;;;2.62;;
30998;SDS011;20549;50.042;8.968;2023-05-28T06:51:39;2.95;;;2.58;;
30998;SDS011;20549;50.042;8.968;2023-05-28T06:54:06;2.77;;;2.40;;
30998;SDS011;20549;50.042;8.968;2023-05-28T06:56:33;2.10;;;1.90;;
30998;SDS011;20549;50.042;8.968;2023-05-28T06:58:59;2.55;;;2.35;;
30998;SDS011;20549;50.042;8.968;2023-05-28T07:01:26;3.33;;;2.87;;
30998;SDS011;20549;50.042;8.968;2023-05-28T07:03:52;2.92;;;2.22;;
30998;SDS011;20549;50.042;8.968;2023-05-28T07:06:19;2.60;;;2.40;;
30998;SDS011;20549;50.042;8.968;2023-05-28T07:08:46;2.50;;;2.30;;
30998;SDS011;20549;50.042;8.968;2023-05-28T07:11:12;3.92;;;2.52;;
30998;SDS011;20549;50.042;8.968;2023-05-28T07:13:39;2.55;;;2.35;;
30998;SDS011;20549;50.042;8.968;2023-05-28T07:16:06;2.62;;;2.22;;
30998;SDS011;20549;50.042;8.968;2023-05-28T07:18:32;3.35;;;2.30;;
30998;SDS011;20549;50.042;8.968;2023-05-28T07:20:59;3.27;;;2.55;;
30998;SDS011;20549;50.042;8.968;2023-05-28T07:23:25;2.60;;;2.27;;
30998;SDS011;20549;50.042;8.968;2023-05-28T07:25:52;2.50;;;2.30;;
30998;SDS011;20549;50.042;8.968;2023-05-28T07:28:18;2.80;;;2.27;;
30998;SDS011;20549;50.042;8.968;2023-05-28T07:30:45;2.25;;;2.05;;
30998;SDS011;20549;50.042;8.968;2023-05-28T07:33:11;3.45;;;2.05;;
30998;SDS011;20549;50.042;8.968;2023-05-28T07:35:38;2.90;;;2.30;;
30998;SDS011;20549;50.042;8.968;2023-05-28T07:38:05;2.25;;;1.95;;
30998;SDS011;20549;50.042;8.968;2023-05-28T07:40:31;2.98;;;2.33;;
30998;SDS011;20549;50.042;8.968;2023-05-28T07:42:58;3.20;;;2.50;;
30998;SDS011;20549;50.042;8.968;2023-05-28T07:45:24;3.02;;;2.42;;
30998;SDS011;20549;50.042;8.968;2023-05-28T07:47:51;3.75;;;2.37;;
30998;SDS011;20549;50.042;8.968;2023-05-28T07:50:18;2.70;;;2.50;;
30998;SDS011;20549;50.042;8.968;2023-05-28T07:52:44;2.30;;;2.10;;
30998;SDS011;20549;50.042;8.968;2023-05-28T07:55:11;3.85;;;2.52;;
30998;SDS011;20549;50.042;8.968;2023-05-28T07:57:37;2.90;;;2.25;;
30998;SDS011;20549;50.042;8.968;2023-05-28T08:00:04;2.55;;;2.35;;
30998;SDS011;20549;50.042;8.968;2023-05-28T08:02:33;2.45;;;2.22;;
30998;SDS011;20549;50.042;8.968;2023-05-28T08:05:00;2.75;;;2.40;;
30998;SDS011;20549;50.042;8.968;2023-05-28T08:07:27;3.45;;;2.20;;
30998;SDS011;20549;50.042;8.968;2023-05-28T08:09:53;4.80;;;2.60;;
30998;SDS011;20549;50.042;8.968;2023-05-28T08:12:20;4.00;;;2.70;;
30998;SDS011;20549;50.042;8.968;2023-05-28T08:14:46;2.75;;;2.50;;
30998;SDS011;20549;50.042;8.968;2023-05-28T08:17:13;2.58;;;2.17;;
30998;SDS011;20549;50.042;8.968;2023-05-28T08:19:40;3.62;;;2.52;;
30998;SDS011;20549;50.042;8.968;2023-05-28T08:22:06;2.72;;;2.33;;
30998;SDS011;20549;50.042;8.968;2023-05-28T08:24:33;3.17;;;2.55;;
30998;SDS011;20549;50.042;8.968;2023-05-28T08:26:59;3.15;;;2.37;;
30998;SDS011;20549;50.042;8.968;2023-05-28T08:29:26;2.52;;;2.33;;
30998;SDS011;20549;50.042;8.968;2023-05-28T08:31:53;2.65;;;2.40;;
30998;SDS011;20549;50.042;8.968;2023-05-28T08:34:19;2.72;;;2.20;;
30998;SDS011;20549;50.042;8.968;2023-05-28T08:36:46;2.40;;;2.20;;
30998;SDS011;20549;50.042;8.968;2023-05-28T08:39:12;4.30;;;2.22;;
30998;SDS011;20549;50.042;8.968;2023-05-28T08:41:39;2.35;;;2.15;;
30998;SDS011;20549;50.042;8.968;2023-05-28T08:44:05;2.77;;;2.40;;
30998;SDS011;20549;50.042;8.968;2023-05-28T08:46:32;2.40;;;2.12;;
30998;SDS011;20549;50.042;8.968;2023-05-28T08:48:59;2.83;;;2.25;;
30998;SDS011;20549;50.042;8.968;2023-05-28T08:51:25;2.00;;;1.90;;
30998;SDS011;20549;50.042;8.968;2023-05-28T08:53:52;2.35;;;2.15;;
30998;SDS011;20549;50.042;8.968;2023-05-28T08:56:18;2.65;;;2.20;;
30998;SDS011;20549;50.042;8.968;2023-05-28T08:58:45;2.83;;;2.58;;
30998;SDS011;20549;50.042;8.968;2023-05-28T09:01:12;2.75;;;2.08;;
30998;SDS011;20549;50.042;8.968;2023-05-28T09:03:39;1.95;;;1.82;;
30998;SDS011;20549;50.042;8.968;2023-05-28T09:06:05;2.40;;;2.20;;
30998;SDS011;20549;50.042;8.968;2023-05-28T09:08:31;3.00;;;2.60;;
30998;SDS011;20549;50.042;8.968;2023-05-28T09:10:59;2.40;;;2.20;;
30998;SDS011;20549;50.042;8.968;2023-05-28T09:13:25;2.30;;;2.12;;
30998;SDS011;20549;50.042;8.968;2023-05-28T09:15:52;3.77;;;2.50;;
30998;SDS011;20549;50.042;8.968;2023-05-28T09:18:21;3.08;;;2.20;;
30998;SDS011;20549;50.042;8.968;2023-05-28T09:20:50;2.50;;;2.30;;
30998;SDS011;20549;50.042;8.968;2023-05-28T09:23:17;2.85;;;2.42;;
30998;SDS011;20549;50.042;8.968;2023-05-28T09:25:43;2.60;;;2.12;;
30998;SDS011;20549;50.042;8.968;2023-05-28T09:28:12;2.80;;;2.30;;
30998;SDS011;20549;50.042;8.968;2023-05-28T09:30:42;2.90;;;2.47;;
30998;SDS011;20549;50.042;8.968;2023-05-28T09:33:08;3.60;;;2.50;;
30998;SDS011;20549;50.042;8.968;2023-05-28T09:35:35;2.65;;;2.20;;
30998;SDS011;20549;50.042;8.968;2023-05-28T09:38:05;2.95;;;2.30;;
30998;SDS011;20549;50.042;8.968;2023-05-28T09:40:31;2.70;;;2.37;;
30998;SDS011;20549;50.042;8.968;2023-05-28T09:42:58;3.42;;;2.37;;
30998;SDS011;20549;50.042;8.968;2023-05-28T09:45:24;2.83;;;2.50;;
30998;SDS011;20549;50.042;8.968;2023-05-28T09:47:51;2.52;;;2.25;;
30998;SDS011;20549;50.042;8.968;2023-05-28T09:50:17;2.90;;;2.65;;
30998;SDS011;20549;50.042;8.968;2023-05-28T09:52:45;3.02;;;2.70;;
30998;SDS011;20549;50.042;8.968;2023-05-28T09:55:17;3.47;;;2.20;;
30998;SDS011;20549;50.042;8.968;2023-05-28T09:57:46;2.85;;;2.20;;
30998;SDS011;20549;50.042;8.968;2023-05-28T10:00:13;3.83;;;2.50;;
30998;SDS011;20549;50.042;8.968;2023-05-28T10:02:57;3.50;;;2.20;;
30998;SDS011;20549;50.042;8.968;2023-05-28T10:05:27;3.60;;;2.58;;
30998;SDS011;20549;50.042;8.968;2023-05-28T10:07:53;3.60;;;2.37;;
30998;SDS011;20549;50.042;8.968;2023-05-28T10:10:19;2.58;;;2.37;;
30998;SDS011;20549;50.042;8.968;2023-05-28T10:12:46;2.45;;;2.25;;
30998;SDS011;20549;50.042;8.968;2023-05-28T10:15:13;2.80;;;2.47;;
30998;SDS011;20549;50.042;8.968;2023-05-28T10:17:39;5.58;;;2.77;;
30998;SDS011;20549;50.042;8.968;2023-05-28T10:20:05;3.65;;;2.98;;
30998;SDS011;20549;50.042;8.968;2023-05-28T10:22:32;3.55;;;2.72;;
30998;SDS011;20549;50.042;8.968;2023-05-28T10:24:59;4.30;;;2.67;;
30998;SDS011;20549;50.042;8.968;2023-05-28T10:27:28;3.00;;;2.70;;
30998;SDS011;20549;50.042;8.968;2023-05-28T10:29:55;4.03;;;2.83;;
30998;SDS011;20549;50.042;8.968;2023-05-28T10:32:21;3.87;;;2.95;;
30998;SDS011;20549;50.042;8.968;2023-05-28T10:34:48;4.83;;;2.95;;
30998;SDS011;20549;50.042;8.968;2023-05-28T10:37:14;2.95;;;2.67;;
30998;SDS011;20549;50.042;8.968;2023-05-28T10:39:42;4.37;;;2.87;;
30998;SDS011;20549;50.042;8.968;2023-05-28T10:42:14;5.67;;;2.60;;
30998;SDS011;20549;50.042;8.968;2023-05-28T10:47:38;4.62;;;3.30;;
30998;SDS011;20549;50.042;8.968;2023-05-28T10:50:10;5.78;;;3.10;;
30998;SDS011;20549;50.042;8.968;2023-05-28T10:52:36;3.40;;;2.90;;
30998;SDS011;20549;50.042;8.968;2023-05-28T10:55:03;3.98;;;2.70;;
30998;SDS011;20549;50.042;8.968;2023-05-28T10:57:45;3.40;;;2.83;;
30998;SDS011;20549;50.042;8.968;2023-05-28T11:00:21;3.72;;;3.02;;
30998;SDS011;20549;50.042;8.968;2023-05-28T11:02:42;3.08;;;2.77;;
30998;SDS011;20549;50.042;8.968;2023-05-28T11:05:09;3.58;;;2.80;;
30998;SDS011;20549;50.042;8.968;2023-05-28T11:07:39;5.10;;;2.80;;
30998;SDS011;20549;50.042;8.968;2023-05-28T11:10:06;4.20;;;3.00;;
30998;SDS011;20549;50.042;8.968;2023-05-28T11:12:35;5.33;;;3.10;;
30998;SDS011;20549;50.042;8.968;2023-05-28T11:14:59;3.95;;;2.62;;
30998;SDS011;20549;50.042;8.968;2023-05-28T11:17:25;3.20;;;2.90;;
30998;SDS011;20549;50.042;8.968;2023-05-28T11:19:52;2.95;;;2.65;;
30998;SDS011;20549;50.042;8.968;2023-05-28T11:22:18;3.08;;;2.77;;
30998;SDS011;20549;50.042;8.968;2023-05-28T11:24:55;3.55;;;2.52;;
30998;SDS011;20549;50.042;8.968;2023-05-28T11:27:26;4.08;;;2.83;;
30998;SDS011;20549;50.042;8.968;2023-05-28T11:29:53;4.47;;;2.80;;
30998;SDS011;20549;50.042;8.968;2023-05-28T11:32:19;3.52;;;3.00;;
30998;SDS011;20549;50.042;8.968;2023-05-28T11:34:49;3.22;;;2.90;;
30998;SDS011;20549;50.042;8.968;2023-05-28T11:37:15;2.98;;;2.60;;
30998;SDS011;20549;50.042;8.968;2023-05-28T11:39:48;8.83;;;2.55;;
30998;SDS011;20549;50.042;8.968;2023-05-28T11:42:15;4.12;;;2.77;;
30998;SDS011;20549;50.042;8.968;2023-05-28T11:44:44;3.30;;;2.70;;
30998;SDS011;20549;50.042;8.968;2023-05-28T11:47:10;3.60;;;3.08;;
30998;SDS011;20549;50.042;8.968;2023-05-28T11:49:37;3.92;;;3.17;;
30998;SDS011;20549;50.042;8.968;2023-05-28T11:52:03;3.10;;;2.70;;
30998;SDS011;20549;50.042;8.968;2023-05-28T11:54:30;3.65;;;2.75;;
30998;SDS011;20549;50.042;8.968;2023-05-28T11:56:57;3.45;;;2.83;;
30998;SDS011;20549;50.042;8.968;2023-05-28T11:59:23;7.05;;;3.83;;
30998;SDS011;20549;50.042;8.968;2023-05-28T12:01:52;3.42;;;3.02;;
30998;SDS011;20549;50.042;8.968;2023-05-28T12:04:22;4.33;;;2.95;;
30998;SDS011;20549;50.042;8.968;2023-05-28T12:06:49;3.35;;;2.87;;
30998;SDS011;20549;50.042;8.968;2023-05-28T12:09:17;3.45;;;2.77;;
30998;SDS011;20549;50.042;8.968;2023-05-28T12:11:44;3.35;;;2.65;;
30998;SDS011;20549;50.042;8.968;2023-05-28T12:14:11;4.62;;;3.37;;
30998;SDS011;20549;50.042;8.968;2023-05-28T12:16:44;2.60;;;2.40;;
30998;SDS011;20549;50.042;8.968;2023-05-28T12:19:10;3.20;;;2.87;;
30998;SDS011;20549;50.042;8.968;2023-05-28T12:21:36;3.47;;;3.08;;
30998;SDS011;20549;50.042;8.968;2023-05-28T12:24:14;3.80;;;2.87;;
30998;SDS011;20549;50.042;8.968;2023-05-28T12:26:41;4.15;;;3.47;;
30998;SDS011;20549;50.042;8.968;2023-05-28T12:29:08;3.65;;;3.08;;
30998;SDS011;20549;50.042;8.968;2023-05-28T12:31:34;4.70;;;3.00;;
30998;SDS011;20549;50.042;8.968;2023-05-28T12:34:01;3.90;;;3.22;;
30998;SDS011;20549;50.042;8.968;2023-05-28T12:36:27;4.25;;;2.85;;
30998;SDS011;20549;50.042;8.968;2023-05-28T12:38:54;5.83;;;3.02;;
30998;SDS011;20549;50.042;8.968;2023-05-28T12:41:21;3.90;;;3.08;;
30998;SDS011;20549;50.042;8.968;2023-05-28T12:43:47;3.22;;;2.83;;
30998;SDS011;20549;50.042;8.968;2023-05-28T12:46:14;3.92;;;3.12;;
30998;SDS011;20549;50.042;8.968;2023-05-28T12:48:40;3.27;;;2.87;;
30998;SDS011;20549;50.042;8.968;2023-05-28T12:51:07;3.47;;;3.12;;
30998;SDS011;20549;50.042;8.968;2023-05-28T12:53:34;4.28;;;3.20;;
30998;SDS011;20549;50.042;8.968;2023-05-28T12:56:00;4.55;;;3.20;;
30998;SDS011;20549;50.042;8.968;2023-05-28T12:58:27;4.50;;;3.30;;
30998;SDS011;20549;50.042;8.968;2023-05-28T13:00:53;3.47;;;3.17;;
30998;SDS011;20549;50.042;8.968;2023-05-28T13:03:20;4.03;;;3.30;;
30998;SDS011;20549;50.042;8.968;2023-05-28T13:05:47;3.37;;;3.00;;
30998;SDS011;20549;50.042;8.968;2023-05-28T13:08:13;3.85;;;3.05;;
30998;SDS011;20549;50.042;8.968;2023-05-28T13:10:40;3.42;;;3.02;;
30998;SDS011;20549;50.042;8.968;2023-05-28T13:13:06;3.52;;;2.87;;
30998;SDS011;20549;50.042;8.968;2023-05-28T13:15:33;5.25;;;3.30;;
30998;SDS011;20549;50.042;8.968;2023-05-28T13:17:59;3.75;;;3.25;;
30998;SDS011;20549;50.042;8.968;2023-05-28T13:20:26;4.22;;;3.40;;
30998;SDS011;20549;50.042;8.968;2023-05-28T13:22:53;3.10;;;2.62;;
30998;SDS011;20549;50.042;8.968;2023-05-28T13:25:19;3.67;;;2.85;;
30998;SDS011;20549;50.042;8.968;2023-05-28T13:27:46;3.27;;;2.98;;
30998;SDS011;20549;50.042;8.968;2023-05-28T13:30:12;4.15;;;3.02;;
30998;SDS011;20549;50.042;8.968;2023-05-28T13:32:39;4.28;;;3.00;;
30998;SDS011;20549;50.042;8.968;2023-05-28T13:35:06;4.58;;;3.65;;
30998;SDS011;20549;50.042;8.968;2023-05-28T13:37:32;4.37;;;3.22;;
30998;SDS011;20549;50.042;8.968;2023-05-28T13:39:59;3.55;;;2.60;;
30998;SDS011;20549;50.042;8.968;2023-05-28T13:42:25;4.42;;;2.92;;
30998;SDS011;20549;50.042;8.968;2023-05-28T13:44:52;3.72;;;2.92;;
30998;SDS011;20549;50.042;8.968;2023-05-28T13:47:19;5.08;;;3.27;;
30998;SDS011;20549;50.042;8.968;2023-05-28T13:49:45;4.50;;;3.17;;
30998;SDS011;20549;50.042;8.968;2023-05-28T13:52:12;3.25;;;2.85;;
30998;SDS011;20549;50.042;8.968;2023-05-28T13:54:38;4.45;;;2.95;;
30998;SDS011;20549;50.042;8.968;2023-05-28T13:57:05;4.22;;;3.40;;
30998;SDS011;20549;50.042;8.968;2023-05-28T13:59:31;3.52;;;3.10;;
30998;SDS011;20549;50.042;8.968;2023-05-28T14:01:58;3.20;;;2.90;;
30998;SDS011;20549;50.042;8.968;2023-05-28T14:04:25;3.75;;;3.40;;
30998;SDS011;20549;50.042;8.968;2023-05-28T14:06:51;4.17;;;3.15;;
30998;SDS011;20549;50.042;8.968;2023-05-28T14:09:18;4.33;;;3.70;;
30998;SDS011;20549;50.042;8.968;2023-05-28T14:11:44;4.47;;;4.05;;
30998;SDS011;20549;50.042;8.968;2023-05-28T14:14:11;5.30;;;4.28;;
30998;SDS011;20549;50.042;8.968;2023-05-28T14:16:38;4.40;;;4.00;;
30998;SDS011;20549;50.042;8.968;2023-05-28T14:19:04;5.30;;;3.70;;
30998;SDS011;20549;50.042;8.968;2023-05-28T14:21:31;3.83;;;2.95;;
30998;SDS011;20549;50.042;8.968;2023-05-28T14:23:57;3.87;;;3.20;;
30998;SDS011;20549;50.042;8.968;2023-05-28T14:26:24;4.05;;;3.33;;
30998;SDS011;20549;50.042;8.968;2023-05-28T14:28:51;4.75;;;3.75;;
30998;SDS011;20549;50.042;8.968;2023-05-28T14:31:17;4.53;;;3.58;;
30998;SDS011;20549;50.042;8.968;2023-05-28T14:33:44;3.50;;;3.00;;
30998;SDS011;20549;50.042;8.968;2023-05-28T14:36:10;4.28;;;3.87;;
30998;SDS011;20549;50.042;8.968;2023-05-28T14:38:37;4.17;;;3.58;;
30998;SDS011;20549;50.042;8.968;2023-05-28T14:41:03;4.15;;;3.22;;
30998;SDS011;20549;50.042;8.968;2023-05-28T14:43:30;4.87;;;3.70;;
30998;SDS011;20549;50.042;8.968;2023-05-28T14:45:57;5.15;;;4.00;;
30998;SDS011;20549;50.042;8.968;2023-05-28T14:48:23;4.87;;;3.40;;